Villa Gesell, Argentina

3:59 AM ART on September 20, 2014 (GMT -0300)
Mar Del Plata International | Change Station
CLOSE
Current Station
Airport
Location: Mar del Plata,
Elevation: 69 ft
Nearby Weather Stations

Elev 69 ft 37.93 °S, 57.57 °W | Updated 59 minutes ago

Mostly Cloudy
Mostly Cloudy
54 °F
Feels Like 54 °F
N
12
Wind Variable Wind from WSW

Today
High -- | Low -- °F
--% Chance of Precip.
Yesterday
High -- | Low -- °F
Precip. -- in
6:40 AM 6:43 PM
Waning Crescent, 14% visible
Pressure 29.92 in
Visibility 4.3 miles
Clouds Scattered Clouds 1000 ft
Mostly Cloudy 10000 ft
Dew Point 48 °F
Humidity 82%
Rainfall 0.00 in
Snow Depth Not available.
UV 0 out of 12
Pollen Not available.
Air Quality Not available.
Flu Activity Not available.
METAR SAZM 200600Z 25010KT 7000 SCT010 BKN100 12/09 Q1013

More Conditions Fewer Conditions

Pressure 29.92 in
Visibility 4.3 miles
Clouds Scattered Clouds 1000 ft
Mostly Cloudy 10000 ft
Dew Point 48 °F
Humidity 82%
Rainfall 0.00 in
Snow Depth Not available.
UV 0 out of 12
Pollen Not available.
Air Quality Not available.
Flu Activity Not available.
METAR SAZM 200600Z 25010KT 7000 SCT010 BKN100 12/09 Q1013

More Conditions Fewer Conditions

10-Day Weather Forecast

Almanac

Astronomy

Sep. 20, 2014 Rise Set
Actual Time 6:40 AM ART 6:43 PM ART
Civil Twilight 6:14 AM ART 7:09 PM ART
Nautical Twilight 5:44 AM ART 7:39 PM ART
Astronomical Twilight 5:13 AM ART 8:10 PM ART
Moon 4:29 AM ART 3:38 PM ART
Length of Visible Light 12h 54m
Length of Day
12h 02m
Tomorrow will be 2m 21s longer.
Waning Crescent, 14% of the Moon is Illuminated
Today
Waning Crescent
Sep 24
New
Oct 1
First Quarter
Oct 8
Full
Oct 15
Last Quarter

Yesterday's Extremes

Country Highs Country Lows

Community

WunderPhotos

Upload Photos

1,754,779 photos uploaded!

WunderBlogs® & News

Nearby

Snow Depth

Not available.

Earthquake Activity

City Distance Mag. Time & Date
No recent earthquake activity has been reported nearby.
Minimum magnitude displayed is 2.5.

Coastal Water Temperatures

Place Temperature
No Stations Reporting

Nearby Weather Stations